Decoded Metar for KCXO (CONROE in TX, USA) (IATA:CXO) | Meteo·Mobile Aviation Weather
aviador You're here:

KCXO Decoded Metar

CONROE in TX, USA
Report Time2018-10-22 09:53:00
UTC Time2018-10-22 10:52:30
Flight Rules vfr VFR
Wind040° at 03 kt
W.Decomp.*RWY 01: 2.7 kt HW 1.3 kt RCW
RWY 32: 0.8 kt HW 2.9 kt RCW
W.Rank040° ranks 30
Current wind is below 040° avg. (5.0)
Visibility9999 m
Phenomena:N/A
Clouds:N/A
Expected CloudBase > 800 ft AGL from Temp-Dew spread
CeilingNone
Temp11°C (ISA -4)
Dew Point09°C (88% RH)
AAT9.7°C
QNH1022 hPa
Density Alt-322 ft
Elevation246 ft
Report Wrong Elevation
Raw Report
KCXO 220953Z AUTO 04003KT 10SM CLR 11/09 A3019 RMK AO2 SLP221
T01110089=

Extra information for KCXO:More info

Metar Taf Metar & Taf Last 4 Metars F.Rules Stats Wind Profile Meteogram Temp Stats Airport Information Weather charts Add Link Nearby VenuesMetar ALERT Operation Metar Decoded Social comments

AIRNAV info for KCXO